createdAt,value
2023-09-08T00:00:49.338Z,99.99
2023-09-08T00:01:49.326Z,99.99
2023-09-08T00:02:49.188Z,99.99
2023-09-08T00:03:49.194Z,99.99
2023-09-08T00:04:49.082Z,99.99
2023-09-08T00:05:48.915Z,99.99
2023-09-08T00:06:48.876Z,99.99
2023-09-08T00:07:48.772Z,99.99
2023-09-08T00:08:48.683Z,99.99
2023-09-08T00:09:48.615Z,99.99
2023-09-08T00:10:48.568Z,99.99
2023-09-08T00:11:48.450Z,99.99
2023-09-08T00:12:48.374Z,98.61
2023-09-08T00:13:48.347Z,98.42
2023-09-08T00:14:48.211Z,99.14
2023-09-08T00:15:48.166Z,99.99
2023-09-08T00:16:48.113Z,99.99
2023-09-08T00:17:47.985Z,99.99
2023-09-08T00:18:47.903Z,99.99
2023-09-08T00:19:47.835Z,99.99
2023-09-08T00:20:47.805Z,99.99
2023-09-08T00:21:47.671Z,99.99
2023-09-08T00:22:47.658Z,99.99
2023-09-08T00:23:47.505Z,99.99
2023-09-08T00:24:47.444Z,99.99
2023-09-08T00:25:47.426Z,99.90
2023-09-08T00:26:47.290Z,99.99
2023-09-08T00:27:47.191Z,99.80
2023-09-08T00:28:47.115Z,98.75
2023-09-08T00:29:47.043Z,99.23
2023-09-08T00:30:46.961Z,99.99
2023-09-08T00:31:46.872Z,99.99
2023-09-08T00:32:46.935Z,99.99
2023-09-08T00:33:46.791Z,99.99
2023-09-08T00:34:46.647Z,99.99
2023-09-08T00:35:46.563Z,99.99
2023-09-08T00:36:46.486Z,99.99
2023-09-08T00:37:46.416Z,99.99
2023-09-08T00:38:46.339Z,99.99
2023-09-08T00:39:46.245Z,99.99
2023-09-08T00:40:46.173Z,99.99
2023-09-08T00:41:46.100Z,99.99
2023-09-08T00:42:46.022Z,99.99
2023-09-08T00:43:45.936Z,99.99
2023-09-08T00:44:45.855Z,99.99
2023-09-08T00:45:45.828Z,99.99
2023-09-08T00:46:45.699Z,99.99
2023-09-08T00:47:45.695Z,99.99
2023-09-08T00:48:45.543Z,99.99
2023-09-08T00:49:45.466Z,99.99
2023-09-08T00:50:45.395Z,99.99
2023-09-08T00:51:45.307Z,99.99
2023-09-08T00:52:45.230Z,99.99
2023-09-08T00:53:45.156Z,99.99
2023-09-08T00:54:45.072Z,99.99
2023-09-08T00:55:44.991Z,99.99
2023-09-08T00:56:44.951Z,99.99
2023-09-08T00:57:44.854Z,99.76
2023-09-08T00:58:44.777Z,98.18
2023-09-08T00:59:44.671Z,97.80
2023-09-08T01:00:44.602Z,98.66
2023-09-08T01:01:44.520Z,98.47
2023-09-08T01:02:44.540Z,98.94
2023-09-08T01:03:44.356Z,99.80
2023-09-08T01:04:44.410Z,99.99
2023-09-08T01:05:44.239Z,99.99
2023-09-08T01:06:44.126Z,99.99
2023-09-08T01:07:44.045Z,99.99
2023-09-08T01:08:44.031Z,99.62
2023-09-08T01:09:43.940Z,98.66
2023-09-08T01:10:43.810Z,98.66
2023-09-08T01:11:43.786Z,98.94
2023-09-08T01:12:43.647Z,97.42
2023-09-08T01:13:43.573Z,97.89
2023-09-08T01:14:43.519Z,98.61
2023-09-08T01:15:43.432Z,99.33
2023-09-08T01:16:43.406Z,99.85
2023-09-08T01:17:43.346Z,99.99
2023-09-08T01:18:43.234Z,99.99
2023-09-08T01:19:43.096Z,99.99
2023-09-08T01:20:43.020Z,99.99
2023-09-08T01:21:42.966Z,99.99
2023-09-08T01:22:42.866Z,99.99
2023-09-08T01:23:42.789Z,99.99
2023-09-08T01:24:42.775Z,99.99
2023-09-08T01:25:42.631Z,99.99
2023-09-08T01:26:42.551Z,99.99
2023-09-08T01:27:42.487Z,99.99
2023-09-08T01:28:42.454Z,99.99
2023-09-08T01:29:42.315Z,99.95
2023-09-08T01:30:42.305Z,99.95
2023-09-08T01:31:42.232Z,99.99
2023-09-08T01:32:42.096Z,99.99
2023-09-08T01:33:41.991Z,98.80
2023-09-08T01:34:41.913Z,96.98
2023-09-08T01:35:41.844Z,96.80
2023-09-08T01:36:41.760Z,96.42
2023-09-08T01:37:41.684Z,96.61
2023-09-08T01:38:41.634Z,97.51
2023-09-08T01:39:41.519Z,98.08
2023-09-08T01:40:41.441Z,98.37
2023-09-08T01:41:41.361Z,99.52
2023-09-08T01:42:41.285Z,99.42
2023-09-08T01:43:41.211Z,99.61
2023-09-08T01:44:41.178Z,98.75
2023-09-08T01:45:41.065Z,99.71
2023-09-08T01:46:41.028Z,99.71
2023-09-08T01:47:40.983Z,99.90
2023-09-08T01:48:40.848Z,99.52
2023-09-08T01:49:40.730Z,98.94
2023-09-08T01:50:40.656Z,99.52
2023-09-08T01:51:40.632Z,99.80
2023-09-08T01:52:40.499Z,99.32
2023-09-08T01:53:40.411Z,99.71
2023-09-08T01:54:40.363Z,99.99
2023-09-08T01:55:40.257Z,99.99
2023-09-08T01:56:40.184Z,99.99
2023-09-08T01:57:40.103Z,99.99
2023-09-08T01:58:40.059Z,99.99
2023-09-08T01:59:39.944Z,99.99
2023-09-08T02:00:39.888Z,99.99
2023-09-08T02:01:39.815Z,99.99
2023-09-08T02:02:39.773Z,99.99
2023-09-08T02:03:39.627Z,99.99
2023-09-08T02:04:39.636Z,99.99
2023-09-08T02:05:39.543Z,99.99
2023-09-08T02:06:39.390Z,99.04
2023-09-08T02:07:39.363Z,97.32
2023-09-08T02:08:39.228Z,97.71
2023-09-08T02:09:39.148Z,99.52
2023-09-08T02:10:39.065Z,99.71
2023-09-08T02:11:38.992Z,99.52
2023-09-08T02:12:38.910Z,99.80
2023-09-08T02:13:38.849Z,99.99
2023-09-08T02:14:38.751Z,99.71
2023-09-08T02:15:39.615Z,99.99
2023-09-08T02:16:38.646Z,98.94
2023-09-08T02:17:38.546Z,99.13
2023-09-08T02:18:38.429Z,99.13
2023-09-08T02:19:38.359Z,98.27
2023-09-08T02:20:38.280Z,99.13
2023-09-08T02:21:38.197Z,98.75
2023-09-08T02:22:38.121Z,99.99
2023-09-08T02:23:38.040Z,99.71
2023-09-08T02:24:37.959Z,98.94
2023-09-08T02:25:37.890Z,98.47
2023-09-08T02:26:37.795Z,98.85
2023-09-08T02:27:37.721Z,98.47
2023-09-08T02:28:37.999Z,97.89
2023-09-08T02:29:37.565Z,98.56
2023-09-08T02:30:37.547Z,98.75
2023-09-08T02:31:37.411Z,98.75
2023-09-08T02:32:37.401Z,99.99
2023-09-08T02:33:37.335Z,99.99
2023-09-08T02:34:37.168Z,99.99
2023-09-08T02:35:37.082Z,99.99
2023-09-08T02:36:37.077Z,99.99
2023-09-08T02:37:36.930Z,99.99
2023-09-08T02:38:37.142Z,99.99
2023-09-08T02:39:36.815Z,99.99
2023-09-08T02:40:36.685Z,99.99
2023-09-08T02:41:36.611Z,99.99
2023-09-08T02:42:36.576Z,99.99
2023-09-08T02:43:36.464Z,99.99
2023-09-08T02:44:36.368Z,99.99
2023-09-08T02:45:36.776Z,99.99
2023-09-08T02:46:36.233Z,99.99
2023-09-08T02:47:36.171Z,99.99
2023-09-08T02:48:36.259Z,99.99
2023-09-08T02:49:36.002Z,99.99
2023-09-08T02:50:35.892Z,99.99
2023-09-08T02:51:35.826Z,99.99
2023-09-08T02:52:35.735Z,99.99
2023-09-08T02:53:35.676Z,99.99
2023-09-08T02:54:35.627Z,99.99
2023-09-08T02:55:35.502Z,99.99
2023-09-08T02:56:35.418Z,99.99
2023-09-08T02:57:35.342Z,99.99
2023-09-08T02:58:35.636Z,99.99
2023-09-08T02:59:35.185Z,99.99
2023-09-08T03:00:35.096Z,99.99
2023-09-08T03:01:35.088Z,99.99
2023-09-08T03:02:35.132Z,99.85
2023-09-08T03:03:34.977Z,97.17
2023-09-08T03:04:34.795Z,97.46
2023-09-08T03:05:34.706Z,98.13
2023-09-08T03:06:34.620Z,97.85
2023-09-08T03:07:34.596Z,97.17
2023-09-08T03:08:34.793Z,97.75
2023-09-08T03:09:34.382Z,98.18
2023-09-08T03:10:34.313Z,99.32
2023-09-08T03:11:34.284Z,98.27
2023-09-08T03:12:34.158Z,98.18
2023-09-08T03:13:34.085Z,98.46
2023-09-08T03:14:33.984Z,98.46
2023-09-08T03:15:33.910Z,99.32
2023-09-08T03:16:33.859Z,99.80
2023-09-08T03:17:33.799Z,99.99
2023-09-08T03:18:33.870Z,99.99
2023-09-08T03:19:33.607Z,99.99
2023-09-08T03:20:33.519Z,99.99
2023-09-08T03:21:33.448Z,99.99
2023-09-08T03:22:33.356Z,99.99
2023-09-08T03:23:33.285Z,99.99
2023-09-08T03:24:33.195Z,99.99
2023-09-08T03:25:33.110Z,99.66
2023-09-08T03:26:33.079Z,99.99
2023-09-08T03:27:32.957Z,99.99
2023-09-08T03:28:33.121Z,99.99
2023-09-08T03:29:32.818Z,99.99
2023-09-08T03:30:32.726Z,99.99
2023-09-08T03:31:32.728Z,99.99
2023-09-08T03:32:32.697Z,98.70
2023-09-08T03:33:32.673Z,98.99
2023-09-08T03:34:32.528Z,99.75
2023-09-08T03:35:32.327Z,99.99
2023-09-08T03:36:32.343Z,99.99
2023-09-08T03:37:32.158Z,99.99
2023-09-08T03:38:32.123Z,99.99
2023-09-08T03:39:32.010Z,99.99
2023-09-08T03:40:31.923Z,99.99
2023-09-08T03:41:31.835Z,99.99
2023-09-08T03:42:31.755Z,99.99
2023-09-08T03:43:31.683Z,99.99
2023-09-08T03:44:31.601Z,99.99
2023-09-08T03:45:31.546Z,99.99
2023-09-08T03:46:31.610Z,99.99
2023-09-08T03:47:31.400Z,99.99
2023-09-08T03:48:31.279Z,99.99
2023-09-08T03:49:31.241Z,99.99
2023-09-08T03:50:31.137Z,99.99
2023-09-08T03:51:31.040Z,99.99
2023-09-08T03:52:30.958Z,99.99
2023-09-08T03:53:30.970Z,99.99
2023-09-08T03:54:30.795Z,99.99
2023-09-08T03:55:30.738Z,99.99
2023-09-08T03:56:30.687Z,99.99
2023-09-08T03:57:30.563Z,99.51
2023-09-08T03:58:30.481Z,99.04
2023-09-08T03:59:30.404Z,99.89
2023-09-08T04:00:30.345Z,99.99
2023-09-08T04:01:30.278Z,99.99
2023-09-08T04:02:30.223Z,99.99
2023-09-08T04:03:30.093Z,99.99
2023-09-08T04:04:29.997Z,99.99
2023-09-08T04:05:29.971Z,99.99
2023-09-08T04:06:29.834Z,99.99
2023-09-08T04:07:29.840Z,99.99
2023-09-08T04:08:29.707Z,99.99
2023-09-08T04:09:29.604Z,99.99
2023-09-08T04:10:29.521Z,99.99
2023-09-08T04:11:29.437Z,99.99
2023-09-08T04:12:29.354Z,99.99
2023-09-08T04:13:29.292Z,99.99
2023-09-08T04:14:29.218Z,99.99
2023-09-08T04:15:29.124Z,99.99
2023-09-08T04:16:29.077Z,99.99
2023-09-08T04:17:29.017Z,99.99
2023-09-08T04:18:28.954Z,99.99
2023-09-08T04:19:28.797Z,99.99
2023-09-08T04:20:28.727Z,99.99
2023-09-08T04:21:28.689Z,99.99
2023-09-08T04:22:28.564Z,99.99
2023-09-08T04:23:28.478Z,99.99
2023-09-08T04:24:28.420Z,99.99
2023-09-08T04:25:28.322Z,99.99
2023-09-08T04:26:28.254Z,99.99
2023-09-08T04:27:28.166Z,99.99
2023-09-08T04:28:28.077Z,99.99
2023-09-08T04:29:27.999Z,99.99
2023-09-08T04:30:27.971Z,99.99
2023-09-08T04:31:27.866Z,99.99
2023-09-08T04:32:27.758Z,99.99
2023-09-08T04:33:27.752Z,99.99
2023-09-08T04:34:27.599Z,99.99
2023-09-08T04:35:27.522Z,99.99
2023-09-08T04:36:27.446Z,99.99
2023-09-08T04:37:27.361Z,99.99
2023-09-08T04:38:27.283Z,99.99
2023-09-08T04:39:27.225Z,99.99
2023-09-08T04:40:27.129Z,99.99
2023-09-08T04:41:27.054Z,99.99
2023-09-08T04:42:26.998Z,99.99
2023-09-08T04:43:26.882Z,99.99
2023-09-08T04:44:26.807Z,99.99
2023-09-08T04:45:26.799Z,99.99
2023-09-08T04:46:26.689Z,99.99
2023-09-08T04:47:26.565Z,99.99
2023-09-08T04:48:27.589Z,99.99
2023-09-08T04:49:26.414Z,99.99
2023-09-08T04:50:26.334Z,99.99
2023-09-08T04:51:26.253Z,99.99
2023-09-08T04:52:26.165Z,99.99
2023-09-08T04:53:26.105Z,99.99
2023-09-08T04:54:26.007Z,99.99
2023-09-08T04:55:25.936Z,99.99
2023-09-08T04:56:25.886Z,99.99
2023-09-08T04:57:25.813Z,99.99
2023-09-08T04:58:25.685Z,99.99
2023-09-08T04:59:25.657Z,99.99
2023-09-08T05:00:25.574Z,99.99
2023-09-08T05:01:25.466Z,99.99
2023-09-08T05:02:25.468Z,99.99
2023-09-08T05:03:25.408Z,99.99
2023-09-08T05:04:25.221Z,99.99
2023-09-08T05:05:25.144Z,99.99
2023-09-08T05:06:25.042Z,99.99
2023-09-08T05:07:24.959Z,99.99
2023-09-08T05:08:24.896Z,99.99
2023-09-08T05:09:24.820Z,99.99
2023-09-08T05:10:24.719Z,99.99
2023-09-08T05:11:24.670Z,99.99
2023-09-08T05:12:24.588Z,99.99
2023-09-08T05:13:31.454Z,99.99
2023-09-08T05:14:24.398Z,99.99
2023-09-08T05:15:24.344Z,99.99
2023-09-08T05:16:24.253Z,99.99
2023-09-08T05:17:24.166Z,99.99
2023-09-08T05:18:24.114Z,99.99
2023-09-08T05:19:24.006Z,99.99
2023-09-08T05:20:23.926Z,99.99
2023-09-08T05:21:23.899Z,99.99
2023-09-08T05:22:24.529Z,99.99
2023-09-08T05:23:23.679Z,99.99
2023-09-08T05:24:23.680Z,99.99
2023-09-08T05:25:23.585Z,99.99
2023-09-08T05:26:23.441Z,99.99
2023-09-08T05:27:23.403Z,99.99
2023-09-08T05:28:23.302Z,99.99
2023-09-08T05:29:23.216Z,99.99
2023-09-08T05:30:23.123Z,99.99
2023-09-08T05:31:23.076Z,99.99
2023-09-08T05:32:22.998Z,99.99
2023-09-08T05:33:22.945Z,99.99
2023-09-08T05:34:22.812Z,99.99
2023-09-08T05:35:22.719Z,99.99
2023-09-08T05:36:22.654Z,99.99
2023-09-08T05:37:22.585Z,99.99
2023-09-08T05:38:22.486Z,99.99
2023-09-08T05:39:22.400Z,99.99
2023-09-08T05:40:22.389Z,99.99
2023-09-08T05:41:22.244Z,99.99
2023-09-08T05:42:22.158Z,99.99
2023-09-08T05:43:22.112Z,99.99
2023-09-08T05:44:22.008Z,99.99
2023-09-08T05:45:21.932Z,99.99
2023-09-08T05:46:21.874Z,99.99
2023-09-08T05:47:21.827Z,99.99
2023-09-08T05:48:21.710Z,99.99
2023-09-08T05:49:21.619Z,99.99
2023-09-08T05:50:21.515Z,99.99
2023-09-08T05:51:21.442Z,99.99
2023-09-08T05:52:21.397Z,99.99
2023-09-08T05:53:21.291Z,99.99
2023-09-08T05:54:21.204Z,99.99
2023-09-08T05:55:21.124Z,99.99
2023-09-08T05:56:21.114Z,99.99
2023-09-08T05:57:20.965Z,99.99
2023-09-08T05:58:20.882Z,99.99
2023-09-08T05:59:20.802Z,99.99
2023-09-08T06:00:20.718Z,99.99
2023-09-08T06:01:22.735Z,99.99
2023-09-08T06:02:20.575Z,99.99
2023-09-08T06:03:20.624Z,99.99
2023-09-08T06:04:20.548Z,99.99
2023-09-08T06:05:20.321Z,99.99
2023-09-08T06:06:20.239Z,99.99
2023-09-08T06:07:20.171Z,99.99
2023-09-08T06:08:20.077Z,99.99
2023-09-08T06:09:20.030Z,99.99
2023-09-08T06:10:19.914Z,99.99
2023-09-08T06:11:19.841Z,99.99
2023-09-08T06:12:19.780Z,99.99
2023-09-08T06:13:19.681Z,99.99
2023-09-08T06:14:19.599Z,99.99
2023-09-08T06:15:19.540Z,99.99
2023-09-08T06:16:19.462Z,99.99
2023-09-08T06:17:19.367Z,99.99
2023-09-08T06:18:19.283Z,99.99
2023-09-08T06:19:19.200Z,99.99
2023-09-08T06:20:19.122Z,99.99
2023-09-08T06:21:19.043Z,99.99
2023-09-08T06:22:18.958Z,99.99
2023-09-08T06:23:18.876Z,99.99
2023-09-08T06:24:18.806Z,99.99
2023-09-08T06:25:18.730Z,99.99
2023-09-08T06:26:18.639Z,99.99
2023-09-08T06:27:18.565Z,99.99
2023-09-08T06:28:18.496Z,99.99
2023-09-08T06:29:18.398Z,99.99
2023-09-08T06:30:18.327Z,99.99
2023-09-08T06:31:18.285Z,99.99
2023-09-08T06:32:18.161Z,99.99
2023-09-08T06:33:18.176Z,99.99
2023-09-08T06:34:18.135Z,99.99
2023-09-08T06:35:17.927Z,99.99
2023-09-08T06:36:17.890Z,99.99
2023-09-08T06:37:17.765Z,99.99
2023-09-08T06:38:17.687Z,99.99
2023-09-08T06:39:17.628Z,99.99
2023-09-08T06:40:17.539Z,99.99
2023-09-08T06:41:17.448Z,99.99
2023-09-08T06:42:17.405Z,99.99
2023-09-08T06:43:17.292Z,99.99
2023-09-08T06:44:17.216Z,99.99
2023-09-08T06:45:17.130Z,99.99
2023-09-08T06:46:17.111Z,99.99
2023-09-08T06:47:16.994Z,99.99
2023-09-08T06:48:16.928Z,99.99
2023-09-08T06:49:16.821Z,99.99
2023-09-08T06:50:16.752Z,99.99
2023-09-08T06:51:16.657Z,99.99
2023-09-08T06:52:16.596Z,99.99
2023-09-08T06:53:16.502Z,99.99
2023-09-08T06:54:16.424Z,99.99
2023-09-08T06:55:16.337Z,99.99
2023-09-08T06:56:16.256Z,99.99
2023-09-08T06:57:16.177Z,99.99
2023-09-08T06:58:16.113Z,99.99
2023-09-08T06:59:16.020Z,99.99
2023-09-08T07:00:15.946Z,99.99
2023-09-08T07:01:15.987Z,99.99
2023-09-08T07:02:15.856Z,99.99
2023-09-08T07:03:15.859Z,99.99
2023-09-08T07:04:15.793Z,99.99
2023-09-08T07:05:15.655Z,99.99
2023-09-08T07:06:15.479Z,99.99
2023-09-08T07:07:15.454Z,99.99
2023-09-08T07:08:15.380Z,99.99
2023-09-08T07:09:15.233Z,99.99
2023-09-08T07:10:15.173Z,99.99
2023-09-08T07:11:17.615Z,99.99
2023-09-08T07:12:14.998Z,99.99
2023-09-08T07:13:15.015Z,99.99
2023-09-08T07:14:14.839Z,99.99
2023-09-08T07:15:14.784Z,99.99
2023-09-08T07:16:14.725Z,99.99
2023-09-08T07:17:14.706Z,99.99
2023-09-08T07:18:14.580Z,99.99
2023-09-08T07:19:14.449Z,99.99
2023-09-08T07:20:14.376Z,99.99
2023-09-08T07:21:14.299Z,99.99
2023-09-08T07:22:14.219Z,99.99
2023-09-08T07:23:14.156Z,99.99
2023-09-08T07:24:14.055Z,99.99
2023-09-08T07:25:13.980Z,99.99
2023-09-08T07:26:13.903Z,99.99
2023-09-08T07:27:13.838Z,99.99
2023-09-08T07:28:13.754Z,99.99
2023-09-08T07:29:13.675Z,99.99
2023-09-08T07:30:13.751Z,99.99
2023-09-08T07:31:13.573Z,99.44
2023-09-08T07:32:13.585Z,99.15
2023-09-08T07:33:13.475Z,98.05
2023-09-08T07:34:13.281Z,97.09
2023-09-08T07:35:13.198Z,96.61
2023-09-08T07:36:13.171Z,96.47
2023-09-08T07:37:13.046Z,94.73
2023-09-08T07:38:12.960Z,93.68
2023-09-08T07:39:12.888Z,93.63
2023-09-08T07:40:12.866Z,92.67
2023-09-08T07:41:12.732Z,93.73
2023-09-08T07:42:12.659Z,94.01
2023-09-08T07:43:12.640Z,94.98
2023-09-08T07:44:12.498Z,94.30
2023-09-08T07:45:12.427Z,91.99
2023-09-08T07:46:12.374Z,90.69
2023-09-08T07:47:12.272Z,90.50
2023-09-08T07:48:12.266Z,89.92
2023-09-08T07:49:12.122Z,89.92
2023-09-08T07:50:12.044Z,90.73
2023-09-08T07:51:11.975Z,90.93
2023-09-08T07:52:11.886Z,90.35
2023-09-08T07:53:11.820Z,90.59
2023-09-08T07:54:11.734Z,89.72
2023-09-08T07:55:11.664Z,89.34
2023-09-08T07:56:11.621Z,88.81
2023-09-08T07:57:11.502Z,87.07
2023-09-08T07:58:11.427Z,85.14
2023-09-08T07:59:11.376Z,85.14
2023-09-08T08:00:11.289Z,84.28
2023-09-08T08:01:11.241Z,83.74
2023-09-08T08:02:11.129Z,83.45
2023-09-08T08:03:11.064Z,85.38
2023-09-08T08:04:11.071Z,85.28
2023-09-08T08:05:10.905Z,84.55
2023-09-08T08:06:10.824Z,85.13
2023-09-08T08:07:10.747Z,82.43
2023-09-08T08:08:10.732Z,83.25
2023-09-08T08:09:10.652Z,80.83
2023-09-08T08:10:10.519Z,81.80
2023-09-08T08:11:10.436Z,82.38
2023-09-08T08:12:10.363Z,81.74
2023-09-08T08:13:10.300Z,81.55
2023-09-08T08:14:10.215Z,81.16
2023-09-08T08:15:10.197Z,80.10
2023-09-08T08:16:10.078Z,78.99
2023-09-08T08:17:09.990Z,79.24
2023-09-08T08:18:10.108Z,80.24
2023-09-08T08:19:09.864Z,81.40
2023-09-08T08:20:09.801Z,80.05
2023-09-08T08:21:09.735Z,76.28
2023-09-08T08:22:09.616Z,76.18
2023-09-08T08:23:09.554Z,77.05
2023-09-08T08:24:09.496Z,77.96
2023-09-08T08:25:11.636Z,75.89
2023-09-08T08:26:09.316Z,76.86
2023-09-08T08:27:09.259Z,76.42
2023-09-08T08:28:09.237Z,77.86
2023-09-08T08:29:09.103Z,78.44
2023-09-08T08:30:09.020Z,79.70
2023-09-08T08:31:08.981Z,79.74
2023-09-08T08:32:08.869Z,80.38
2023-09-08T08:33:08.924Z,78.48
2023-09-08T08:34:08.724Z,79.25
2023-09-08T08:35:08.658Z,78.58
2023-09-08T08:36:08.617Z,76.97
2023-09-08T08:37:08.503Z,75.43
2023-09-08T08:38:08.431Z,73.78
2023-09-08T08:39:08.350Z,73.78
2023-09-08T08:40:08.286Z,74.17
2023-09-08T08:41:08.219Z,74.55
2023-09-08T08:42:08.132Z,73.20
2023-09-08T08:43:08.070Z,74.98
2023-09-08T08:44:07.987Z,75.04
2023-09-08T08:45:07.901Z,75.13
2023-09-08T08:46:07.849Z,73.59
2023-09-08T08:47:07.795Z,74.30
2023-09-08T08:48:07.776Z,73.04
2023-09-08T08:49:07.638Z,73.82
2023-09-08T08:50:07.557Z,73.63
2023-09-08T08:51:07.582Z,70.92
2023-09-08T08:52:07.390Z,69.75
2023-09-08T08:53:07.316Z,69.75
2023-09-08T08:54:07.251Z,70.82
2023-09-08T08:55:07.176Z,71.20
2023-09-08T08:56:07.103Z,71.69
2023-09-08T08:57:07.081Z,70.92
2023-09-08T08:58:07.008Z,69.95
2023-09-08T08:59:06.881Z,71.30
2023-09-08T09:00:06.859Z,69.69
2023-09-08T09:01:06.786Z,69.89
2023-09-08T09:02:06.682Z,69.11
2023-09-08T09:03:14.873Z,67.05
2023-09-08T09:04:06.536Z,66.85
2023-09-08T09:05:06.443Z,68.40
2023-09-08T09:06:06.381Z,67.43
2023-09-08T09:07:06.303Z,66.75
2023-09-08T09:08:06.237Z,65.98
2023-09-08T09:09:06.153Z,66.85
2023-09-08T09:10:06.086Z,65.98
2023-09-08T09:11:06.123Z,65.88
2023-09-08T09:12:05.935Z,66.66
2023-09-08T09:13:05.872Z,66.66
2023-09-08T09:14:05.822Z,66.85
2023-09-08T09:15:05.759Z,68.11
2023-09-08T09:16:05.732Z,67.33
2023-09-08T09:17:05.622Z,67.43
2023-09-08T09:18:05.647Z,66.95
2023-09-08T09:19:05.498Z,66.17
2023-09-08T09:20:05.365Z,66.40
2023-09-08T09:21:05.288Z,66.98
2023-09-08T09:22:05.214Z,68.05
2023-09-08T09:23:05.154Z,68.15
2023-09-08T09:24:05.122Z,68.05
2023-09-08T09:25:05.138Z,68.15
2023-09-08T09:26:05.025Z,68.53
2023-09-08T09:27:04.850Z,67.11
2023-09-08T09:28:04.781Z,66.05
2023-09-08T09:29:04.720Z,65.17
2023-09-08T09:30:04.636Z,65.37
2023-09-08T09:31:04.566Z,66.05
2023-09-08T09:32:04.532Z,65.08
2023-09-08T09:33:04.459Z,64.89
2023-09-08T09:34:04.378Z,63.92
2023-09-08T09:35:04.282Z,65.79
2023-09-08T09:36:04.200Z,66.37
2023-09-08T09:37:04.133Z,68.50
2023-09-08T09:38:04.060Z,65.40
2023-09-08T09:39:03.986Z,63.37
2023-09-08T09:40:03.941Z,61.72
2023-09-08T09:41:03.843Z,61.72
2023-09-08T09:42:03.776Z,61.91
2023-09-08T09:43:03.728Z,65.24
2023-09-08T09:44:03.631Z,63.85
2023-09-08T09:45:03.583Z,67.14
2023-09-08T09:46:03.498Z,67.27
2023-09-08T09:47:03.418Z,66.11
2023-09-08T09:48:03.360Z,63.40
2023-09-08T09:49:04.057Z,63.91
2023-09-08T09:50:03.198Z,64.78
2023-09-08T09:51:03.123Z,66.82
2023-09-08T09:52:03.048Z,61.78
2023-09-08T09:53:02.978Z,62.07
2023-09-08T09:54:02.913Z,63.53
2023-09-08T09:55:02.836Z,63.43
2023-09-08T09:56:02.769Z,61.78
2023-09-08T09:57:02.711Z,62.07
2023-09-08T09:58:02.622Z,62.85
2023-09-08T09:59:02.556Z,63.13
2023-09-08T10:00:02.572Z,63.20
2023-09-08T10:01:02.523Z,63.40
2023-09-08T10:02:02.367Z,66.20
2023-09-08T10:03:02.508Z,65.37
2023-09-08T10:04:02.358Z,61.39
2023-09-08T10:05:02.128Z,63.43
2023-09-08T10:06:02.085Z,63.33
2023-09-08T10:07:01.982Z,63.33
2023-09-08T10:08:01.920Z,62.88
2023-09-08T10:09:01.844Z,60.84
2023-09-08T10:10:01.767Z,61.04
2023-09-08T10:11:01.700Z,61.32
2023-09-08T10:12:01.665Z,61.42
2023-09-08T10:13:01.566Z,62.49
2023-09-08T10:14:01.484Z,64.53
2023-09-08T10:15:01.453Z,61.91
2023-09-08T10:16:01.350Z,61.49
2023-09-08T10:17:01.333Z,61.58
2023-09-08T10:18:01.437Z,60.61
2023-09-08T10:19:01.153Z,61.91
2023-09-08T10:20:01.062Z,63.95
2023-09-08T10:21:00.998Z,62.98
2023-09-08T10:22:00.966Z,62.13
2023-09-08T10:23:00.853Z,61.55
2023-09-08T10:24:00.784Z,61.45
2023-09-08T10:25:00.709Z,62.07
2023-09-08T10:26:02.758Z,62.26
2023-09-08T10:27:00.585Z,62.45
2023-09-08T10:28:00.508Z,61.48
2023-09-08T10:29:00.436Z,60.25
2023-09-08T10:30:00.397Z,61.22
2023-09-08T10:31:00.358Z,60.93
2023-09-08T10:32:00.293Z,58.69
2023-09-08T10:33:00.178Z,58.59
2023-09-08T10:34:00.143Z,58.86
2023-09-08T10:35:00.039Z,60.44
2023-09-08T10:35:59.933Z,58.95
2023-09-08T10:36:59.942Z,60.41
2023-09-08T10:37:59.795Z,62.35
2023-09-08T10:38:59.732Z,62.55
2023-09-08T10:39:59.679Z,60.41
2023-09-08T10:40:59.587Z,59.57
2023-09-08T10:41:59.518Z,60.05
2023-09-08T10:42:59.471Z,59.28
2023-09-08T10:43:59.405Z,60.74
2023-09-08T10:44:59.331Z,60.96
2023-09-08T10:45:59.300Z,60.47
2023-09-08T10:46:59.212Z,59.69
2023-09-08T10:47:59.137Z,60.77
2023-09-08T10:48:59.058Z,59.69
2023-09-08T10:50:00.651Z,59.99
2023-09-08T10:50:58.897Z,58.04
2023-09-08T10:51:58.881Z,59.92
2023-09-08T10:52:58.750Z,59.82
2023-09-08T10:53:58.684Z,58.75
2023-09-08T10:54:58.611Z,55.93
2023-09-08T10:56:16.705Z,55.83
2023-09-08T10:56:58.506Z,56.71
2023-09-08T10:57:58.417Z,56.81
2023-09-08T10:58:58.397Z,59.43
2023-09-08T10:59:58.271Z,59.05
2023-09-08T11:00:58.195Z,59.95
2023-09-08T11:01:58.165Z,61.21
2023-09-08T11:02:58.323Z,59.27
2023-09-08T11:03:58.108Z,57.61
2023-09-08T11:04:57.923Z,55.83
2023-09-08T11:05:57.891Z,57.46
2023-09-08T11:06:57.790Z,58.53
2023-09-08T11:07:57.715Z,59.31
2023-09-08T11:08:57.924Z,59.21
2023-09-08T11:09:57.579Z,60.77
2023-09-08T11:10:57.515Z,61.57
2023-09-08T11:11:57.586Z,59.72
2023-09-08T11:12:57.368Z,59.63
2023-09-08T11:13:58.639Z,59.43
2023-09-08T11:14:57.278Z,60.31
2023-09-08T11:15:57.262Z,59.23
2023-09-08T11:16:57.093Z,61.67
2023-09-08T11:17:57.085Z,59.92
2023-09-08T11:18:57.043Z,59.01
2023-09-08T11:19:56.890Z,58.23
2023-09-08T11:20:56.934Z,59.01
2023-09-08T11:21:56.756Z,59.41
2023-09-08T11:22:56.681Z,59.47
2023-09-08T11:23:56.614Z,60.08
2023-09-08T11:24:56.575Z,58.72
2023-09-08T11:25:56.477Z,60.38
2023-09-08T11:26:56.409Z,61.57
2023-09-08T11:27:56.350Z,61.47
2023-09-08T11:28:56.273Z,60.34
2023-09-08T11:29:56.200Z,60.85
2023-09-08T11:30:56.220Z,58.59
2023-09-08T11:31:56.122Z,58.42
2023-09-08T11:32:56.059Z,54.60
2023-09-08T11:33:56.011Z,54.60
2023-09-08T11:34:55.863Z,55.66
2023-09-08T11:35:58.620Z,54.79
2023-09-08T11:36:55.765Z,54.69
2023-09-08T11:37:55.658Z,54.40
2023-09-08T11:38:55.612Z,54.79
2023-09-08T11:39:55.563Z,58.59
2023-09-08T11:40:55.456Z,58.42
2023-09-08T11:41:55.391Z,56.86
2023-09-08T11:42:55.354Z,53.52
2023-09-08T11:43:55.299Z,54.40
2023-09-08T11:44:55.172Z,54.69
2023-09-08T11:45:55.193Z,54.66
2023-09-08T11:46:55.186Z,55.64
2023-09-08T11:47:55.036Z,58.43
2023-09-08T11:48:54.964Z,55.13
2023-09-08T11:49:54.837Z,57.33
2023-09-08T11:50:54.763Z,57.26
2023-09-08T11:51:54.734Z,60.38
2023-09-08T11:52:54.644Z,60.41
2023-09-08T11:53:54.569Z,60.02
2023-09-08T11:55:06.474Z,61.57
2023-09-08T11:55:54.465Z,60.63
2023-09-08T11:56:54.352Z,57.42
2023-09-08T11:57:54.289Z,54.01
2023-09-08T11:58:54.297Z,52.84
2023-09-08T11:59:54.158Z,54.50
2023-09-08T12:00:54.089Z,54.69
2023-09-08T12:01:54.029Z,53.62
2023-09-08T12:02:53.986Z,53.23
2023-09-08T12:03:53.997Z,54.60
2023-09-08T12:04:53.807Z,55.18
2023-09-08T12:05:53.801Z,54.79
2023-09-08T12:06:53.725Z,56.54
2023-09-08T12:07:53.608Z,54.60
2023-09-08T12:08:53.575Z,56.37
2023-09-08T12:09:53.533Z,57.54
2023-09-08T12:10:53.398Z,54.36
2023-09-08T12:11:53.337Z,52.80
2023-09-08T12:12:53.304Z,51.14
2023-09-08T12:13:53.197Z,50.73
2023-09-08T12:14:53.129Z,51.41
2023-09-08T12:15:53.075Z,53.45
2023-09-08T12:16:53.017Z,54.13
2023-09-08T12:17:52.938Z,52.48
2023-09-08T12:18:52.892Z,54.52
2023-09-08T12:19:52.792Z,55.40
2023-09-08T12:20:52.721Z,54.13
2023-09-08T12:21:52.694Z,54.43
2023-09-08T12:22:52.576Z,54.50
2023-09-08T12:23:52.528Z,55.08
2023-09-08T12:24:52.491Z,54.62
2023-09-08T12:25:52.598Z,53.55
2023-09-08T12:26:52.325Z,51.51
2023-09-08T12:27:52.287Z,53.67
2023-09-08T12:28:52.176Z,54.85
2023-09-08T12:29:52.111Z,53.80
2023-09-08T12:30:52.081Z,52.34
2023-09-08T12:31:52.040Z,51.46
2023-09-08T12:32:52.032Z,51.26
2023-09-08T12:33:51.868Z,50.58
2023-09-08T12:34:51.765Z,50.58
2023-09-08T12:35:51.697Z,49.68
2023-09-08T12:36:51.640Z,49.68
2023-09-08T12:37:51.568Z,53.55
2023-09-08T12:38:51.493Z,53.16
2023-09-08T12:39:51.455Z,51.12
2023-09-08T12:40:51.367Z,50.63
2023-09-08T12:41:52.017Z,51.41
2023-09-08T12:42:56.703Z,49.95
2023-09-08T12:43:51.160Z,51.21
2023-09-08T12:44:51.207Z,51.21
2023-09-08T12:45:51.058Z,52.50
2023-09-08T12:46:50.983Z,54.26
2023-09-08T12:47:50.932Z,54.94
2023-09-08T12:48:50.824Z,50.75
2023-09-08T12:49:50.776Z,49.97
2023-09-08T12:50:50.739Z,54.16
2023-09-08T12:51:50.617Z,54.43